DYess Air Force Base Abilene US
ICAO: KDYS
IATA: DYS
Category: Large
Scheduled Services: No

Elevation: 1789 ft
TransAlt. 18000 ft.

Airport Communications:
ABILENE APP/DEP:125
ATIS:38.57
GND:118.35
PMSV METRO:38.325
ACC COMMAND POST:31.1
AMCC:34.94
PTD:139.3
TWR:133

KDYS Zoom In..

Runways:

(A) RW 16 length 13500 ft width 300 ft
ILS 109.90 / hdg 161

(B) RW 34 length 13500 ft width 300 ft
ILS 109.90 / hdg 341

Location; KDYS
Day. 21 / Time. 23.56 Zulu
* Altimeter: 30.00
* Temperature: 18° c. 64.4°f.
* Wind from: 020° Speed 17 kn with Gusts up to 24 kn.
Dewpoint: 07° c.
Visibility: 10 Statute Miles.
Clouds: Few 4100 ft.

KDYS 212356Z AUTO 02017G24KT 10SM FEW041 18/07 A3000 RMK AO2 PK WND 35026/18 SLP137 60007 T01820073 10274 20168 52040 $


Wind From 020°
Speed 17 kn.

  YouTube Music Video
 
jpsmedia.com for Web Design  worldairports.se 2018   terms of use